Delta Virtual Airport Information Service

Charlotte Douglas International Airport

ICAO: KCLT Country: United States
Latitude: 35.214 Longitude: -80.9431
Latest Arrival : AAL605 (A) (KMCI-KCLT) Latest Departure : AAL3856202 (KCLT-KDCA)


WX CaptureLIVE
Data provided by noaa.gov | Fetched at 10:33:19

METAR : KCLT 281452Z 00000KT 10SM BKN006 OVC010 22/19 A3010 RMK AO2 RAB02E38 SLP188 P0001 60003 T02220194 50003

TAF : KCLT 281407Z 2814/2918 16003KT P6SM BKN005 OVC026 TEMPO 2814/2815 5SM -SHRA BR SCT005 BKN012 FM281500 17003KT P6SM BKN015 FM281600 18004KT P6SM BKN023 FM281900 18006KT P6SM VCSH BKN035 TEMPO 2821/2901 4SM TSRA BR OVC015CB FM290300 16004KT P6SM BKN180 FM290800 19004KT P6SM BKN025


Runway Data for KCLT
Data provided by openaviationdata.com

Runway ID Mag Var Hdg Length Elevation Surface ILS Freq ILS Id ILS Slope
5 -7 55° 7501 ft 748 ft Asphalt 110.95 ICLT 3
18L -7 182° 8686 ft 748 ft Asphalt 110.35 IVKQ 3
18R -7 182° 10016 ft 748 ft Concrete 111.3 IPEP 3
23 -7 235° 7501 ft 748 ft Asphalt 109.5 IAPU 3
36L -7 10016 ft 748 ft Concrete 111.7 IDQG 3
36R -7 8686 ft 748 ft Asphalt 108.9 IBQC 3

Charlotte Douglas International Airport, United States
Use only for reference purposes



Not for navigational purposes.